Time;durP1;ratioP1;P1;durP2;ratioP2;P2;SDS_P1;SDS_P2;PMS_P1;PMS_P2;Temp;Humidity;BMP_temperature;BMP_pressure;BME280_temperature;BME280_humidity;BME280_pressure;Samples;Min_cycle;Max_cycle;Signal;HPM_P1;HPM_P2
2023/05/21 00:02:14;;;;;;;;;;;19.00;59.10;;;;;;5078924;28;19934;-80
2023/05/21 00:04:40;;;;;;;;;;;19.00;59.10;;;;;;5079327;28;19908;-80
2023/05/21 00:07:07;;;;;;;;;;;19.00;59.10;;;;;;5078677;28;19908;-80
2023/05/21 00:09:32;;;;;;;;;;;19.00;59.10;;;;;;5078397;28;20402;-80
2023/05/21 00:11:58;;;;;;;;;;;19.00;59.40;;;;;;5078451;28;20270;-79
2023/05/21 00:14:24;;;;;;;;;;;19.00;59.00;;;;;;5095149;28;20225;-79
2023/05/21 00:16:49;;;;;;;;;;;19.00;59.10;;;;;;5079285;28;19915;-80
2023/05/21 00:19:15;;;;;;;;;;;19.00;59.10;;;;;;5079300;28;19984;-80
2023/05/21 00:21:41;;;;;;;;;;;19.00;59.10;;;;;;5079464;28;20341;-80
2023/05/21 00:24:06;;;;;;;;;;;18.90;59.00;;;;;;5078825;28;20377;-80
2023/05/21 00:26:32;;;;;;;;;;;18.90;59.00;;;;;;5079927;28;19927;-80
2023/05/21 00:28:57;;;;;;;;;;;18.90;59.00;;;;;;5080372;28;19919;-80
2023/05/21 00:31:23;;;;;;;;;;;18.90;59.00;;;;;;5098060;28;20300;-80
2023/05/21 00:33:49;;;;;;;;;;;18.90;59.10;;;;;;5078053;28;19958;-79
2023/05/21 00:36:15;;;;;;;;;;;18.90;59.10;;;;;;5078137;28;19908;-80
2023/05/21 00:38:44;;;;;;;;;;;18.90;59.10;;;;;;5079098;28;19916;-80
2023/05/21 00:41:10;;;;;;;;;;;18.90;59.10;;;;;;5079241;28;20225;-80
2023/05/21 00:43:39;;;;;;;;;;;18.90;59.10;;;;;;5077713;28;20008;-79
2023/05/21 00:46:05;;;;;;;;;;;18.90;59.10;;;;;;5096321;28;19919;-80
2023/05/21 00:48:31;;;;;;;;;;;18.90;59.10;;;;;;5095740;28;19923;-80
2023/05/21 00:50:56;;;;;;;;;;;18.80;59.00;;;;;;5078421;28;19912;-80
2023/05/21 00:53:22;;;;;;;;;;;18.80;59.10;;;;;;5095008;28;19912;-80
2023/05/21 00:55:49;;;;;;;;;;;18.80;59.10;;;;;;5086666;28;19908;-80
2023/05/21 00:58:16;;;;;;;;;;;18.80;59.10;;;;;;5079374;28;19909;-80
2023/05/21 01:00:42;;;;;;;;;;;18.80;59.10;;;;;;5078970;28;19908;-80
2023/05/21 01:03:09;;;;;;;;;;;18.80;59.10;;;;;;5095228;28;20003;-80
2023/05/21 01:05:35;;;;;;;;;;;18.80;59.10;;;;;;5078894;28;20084;-79
2023/05/21 01:08:01;;;;;;;;;;;18.80;59.20;;;;;;5081954;28;19918;-80
2023/05/21 01:10:27;;;;;;;;;;;18.80;59.10;;;;;;5116318;28;20014;-80
2023/05/21 01:12:54;;;;;;;;;;;18.80;59.10;;;;;;5099309;28;20003;-80
2023/05/21 01:15:19;;;;;;;;;;;18.80;59.10;;;;;;5082205;28;19957;-80
2023/05/21 01:17:45;;;;;;;;;;;18.80;59.10;;;;;;5082447;28;19908;-80
2023/05/21 01:20:10;;;;;;;;;;;18.80;59.20;;;;;;5100296;28;20003;-80
2023/05/21 01:22:53;;;;;;;;;;;18.70;59.10;;;;;;5082208;28;20292;-80
2023/05/21 01:25:18;;;;;;;;;;;18.80;59.20;;;;;;5082738;28;20372;-79
2023/05/21 01:27:44;;;;;;;;;;;18.70;59.10;;;;;;5082103;28;20014;-80
2023/05/21 01:30:10;;;;;;;;;;;18.70;59.20;;;;;;5081087;28;19919;-80
2023/05/21 01:32:52;;;;;;;;;;;18.70;59.20;;;;;;5115256;28;20266;-80
2023/05/21 01:35:24;;;;;;;;;;;18.70;59.50;;;;;;5080435;28;19919;-80
2023/05/21 01:37:56;;;;;;;;;;;18.70;59.20;;;;;;5098495;28;19980;-79
2023/05/21 01:40:23;;;;;;;;;;;18.70;59.20;;;;;;5082170;28;19908;-80
2023/05/21 01:42:50;;;;;;;;;;;18.70;59.20;;;;;;5100154;28;19908;-80
2023/05/21 01:45:16;;;;;;;;;;;18.70;59.20;;;;;;5082878;28;20226;-80
2023/05/21 01:47:43;;;;;;;;;;;18.70;59.20;;;;;;5081158;28;19923;-80
2023/05/21 01:50:09;;;;;;;;;;;18.70;59.20;;;;;;5100191;28;19916;-79
2023/05/21 01:52:35;;;;;;;;;;;18.70;59.20;;;;;;5082155;28;20056;-79
2023/05/21 01:55:01;;;;;;;;;;;18.60;59.20;;;;;;5080819;28;20254;-79
2023/05/21 01:57:26;;;;;;;;;;;18.70;59.20;;;;;;5080567;28;19939;-80
2023/05/21 01:59:53;;;;;;;;;;;18.60;59.20;;;;;;5082104;28;19908;-80
2023/05/21 02:02:18;;;;;;;;;;;18.60;59.20;;;;;;5081497;28;19908;-79
2023/05/21 02:04:45;;;;;;;;;;;18.60;59.20;;;;;;5115964;28;19923;-79
2023/05/21 02:07:13;;;;;;;;;;;18.60;59.30;;;;;;5081751;28;20202;-80
2023/05/21 02:09:38;;;;;;;;;;;18.60;59.30;;;;;;5099654;28;19943;-79
2023/05/21 02:12:04;;;;;;;;;;;18.60;59.20;;;;;;5115448;28;20024;-80
2023/05/21 02:14:32;;;;;;;;;;;18.60;59.30;;;;;;5114847;28;20584;-79
2023/05/21 02:16:59;;;;;;;;;;;18.60;59.30;;;;;;5079945;28;19919;-80
2023/05/21 02:19:25;;;;;;;;;;;18.60;59.30;;;;;;5115440;28;19908;-80
2023/05/21 02:21:51;;;;;;;;;;;18.60;59.30;;;;;;5098930;28;19908;-80
2023/05/21 02:24:17;;;;;;;;;;;18.60;59.30;;;;;;5082075;28;20003;-79
2023/05/21 02:26:42;;;;;;;;;;;18.60;59.30;;;;;;5081314;28;19968;-80
2023/05/21 02:29:08;;;;;;;;;;;18.60;59.30;;;;;;5081454;28;20020;-80
2023/05/21 02:31:33;;;;;;;;;;;18.50;59.20;;;;;;5081992;28;20257;-79
2023/05/21 02:33:59;;;;;;;;;;;18.50;59.20;;;;;;5081508;28;19916;-80
2023/05/21 02:36:25;;;;;;;;;;;18.50;59.20;;;;;;5082519;28;20098;-80
2023/05/21 02:38:50;;;;;;;;;;;18.50;59.30;;;;;;5083155;28;19942;-79
2023/05/21 02:41:16;;;;;;;;;;;18.50;59.30;;;;;;5100845;28;20195;-79
2023/05/21 02:43:41;;;;;;;;;;;18.50;59.30;;;;;;5083675;28;20007;-80
2023/05/21 02:46:07;;;;;;;;;;;18.50;59.30;;;;;;5099438;28;19919;-80
2023/05/21 02:48:33;;;;;;;;;;;18.50;59.30;;;;;;5082611;28;20319;-80
2023/05/21 02:50:58;;;;;;;;;;;18.50;59.30;;;;;;5100508;28;20335;-79
2023/05/21 02:53:24;;;;;;;;;;;18.50;59.30;;;;;;5082296;28;20288;-79
2023/05/21 02:55:50;;;;;;;;;;;18.50;59.30;;;;;;5081635;28;19908;-80
2023/05/21 02:58:15;;;;;;;;;;;18.50;59.30;;;;;;5079929;28;19915;-79
2023/05/21 03:00:40;;;;;;;;;;;18.50;59.40;;;;;;5097957;28;19912;-79
2023/05/21 03:03:06;;;;;;;;;;;18.50;59.30;;;;;;5097399;28;20069;-79
2023/05/21 03:05:32;;;;;;;;;;;18.50;59.40;;;;;;5096548;28;20141;-79
2023/05/21 03:07:57;;;;;;;;;;;18.40;59.30;;;;;;5078833;28;19923;-79
2023/05/21 03:10:23;;;;;;;;;;;18.40;59.30;;;;;;5078290;28;19947;-80
2023/05/21 03:12:48;;;;;;;;;;;18.50;59.40;;;;;;5079563;28;19908;-80
2023/05/21 03:15:14;;;;;;;;;;;18.40;59.30;;;;;;5080025;28;19990;-80
2023/05/21 03:17:43;;;;;;;;;;;18.40;59.30;;;;;;5080592;28;19908;-79
2023/05/21 03:20:14;;;;;;;;;;;18.40;59.30;;;;;;5079174;28;19908;-79
2023/05/21 03:22:41;;;;;;;;;;;18.40;59.30;;;;;;5079457;28;19908;-80
2023/05/21 03:25:08;;;;;;;;;;;18.40;59.30;;;;;;5080792;28;19966;-80
2023/05/21 03:27:33;;;;;;;;;;;18.40;59.30;;;;;;5098174;28;19908;-80
2023/05/21 03:29:59;;;;;;;;;;;18.40;59.30;;;;;;5097238;28;20019;-79
2023/05/21 03:32:24;;;;;;;;;;;18.40;59.40;;;;;;5078875;28;19939;-79
2023/05/21 03:34:50;;;;;;;;;;;18.40;59.40;;;;;;5080514;28;20261;-80
2023/05/21 03:37:15;;;;;;;;;;;18.40;59.40;;;;;;5080886;28;19939;-80
2023/05/21 03:39:41;;;;;;;;;;;18.40;59.40;;;;;;5098520;28;19943;-79
2023/05/21 03:42:06;;;;;;;;;;;18.40;59.40;;;;;;5081165;28;19908;-79
2023/05/21 03:44:32;;;;;;;;;;;18.40;59.40;;;;;;5081035;28;19908;-80
2023/05/21 03:46:58;;;;;;;;;;;18.40;59.40;;;;;;5099283;28;19908;-80
2023/05/21 03:49:24;;;;;;;;;;;18.40;59.40;;;;;;5081479;28;19937;-80
2023/05/21 03:51:49;;;;;;;;;;;18.40;59.50;;;;;;5081780;28;19908;-80
2023/05/21 03:54:15;;;;;;;;;;;18.40;59.40;;;;;;5080324;28;20054;-80
2023/05/21 03:56:41;;;;;;;;;;;18.30;59.40;;;;;;5080185;28;19908;-79
2023/05/21 03:59:06;;;;;;;;;;;18.30;59.40;;;;;;5078974;28;19916;-79
2023/05/21 04:01:32;;;;;;;;;;;18.40;59.40;;;;;;5079617;28;20168;-80
2023/05/21 04:03:57;;;;;;;;;;;18.30;59.40;;;;;;5097382;28;19916;-80
2023/05/21 04:06:24;;;;;;;;;;;18.30;59.40;;;;;;5079901;28;19956;-80
2023/05/21 04:08:51;;;;;;;;;;;18.30;59.40;;;;;;5079979;28;20103;-80
2023/05/21 04:11:16;;;;;;;;;;;18.30;59.40;;;;;;5114874;28;19943;-80
2023/05/21 04:13:42;;;;;;;;;;;18.30;59.40;;;;;;5087497;28;19915;-80
2023/05/21 04:16:08;;;;;;;;;;;18.30;59.40;;;;;;5097309;28;19965;-79
2023/05/21 04:18:34;;;;;;;;;;;18.30;59.40;;;;;;5079622;28;20201;-80
2023/05/21 04:21:01;;;;;;;;;;;18.30;59.40;;;;;;5113968;28;19908;-80
2023/05/21 04:23:26;;;;;;;;;;;18.30;59.30;;;;;;5097621;28;20285;-79
2023/05/21 04:25:52;;;;;;;;;;;18.30;59.30;;;;;;5098411;28;19995;-80
2023/05/21 04:28:19;;;;;;;;;;;18.30;59.30;;;;;;5080211;28;19912;-79
2023/05/21 04:30:48;;;;;;;;;;;18.30;59.30;;;;;;5113180;28;19908;-80
2023/05/21 04:33:16;;;;;;;;;;;18.30;59.30;;;;;;5079665;28;19950;-80
2023/05/21 04:35:45;;;;;;;;;;;18.30;59.30;;;;;;5079932;28;20045;-79
2023/05/21 04:38:11;;;;;;;;;;;18.30;59.30;;;;;;5097347;28;19916;-79
2023/05/21 04:40:36;;;;;;;;;;;18.30;59.30;;;;;;5096786;28;19919;-80
2023/05/21 04:43:03;;;;;;;;;;;18.30;59.20;;;;;;5079153;28;20260;-80
2023/05/21 04:45:29;;;;;;;;;;;18.30;59.20;;;;;;5079459;28;20000;-80
2023/05/21 04:47:59;;;;;;;;;;;18.30;59.20;;;;;;5098289;28;19918;-80
2023/05/21 04:50:24;;;;;;;;;;;18.30;59.20;;;;;;5097074;28;19919;-80
2023/05/21 04:52:50;;;;;;;;;;;18.30;59.20;;;;;;5079789;28;19908;-80
2023/05/21 04:55:21;;;;;;;;;;;18.30;59.20;;;;;;5095781;28;20321;-79
2023/05/21 04:57:47;;;;;;;;;;;18.40;59.20;;;;;;5076946;28;19961;-80
2023/05/21 05:00:13;;;;;;;;;;;18.40;59.20;;;;;;5076996;28;19913;-80
2023/05/21 05:02:38;;;;;;;;;;;18.40;59.20;;;;;;5077692;28;19908;-80
2023/05/21 05:05:05;;;;;;;;;;;18.40;59.20;;;;;;5078402;28;19919;-80
2023/05/21 05:07:31;;;;;;;;;;;18.40;59.10;;;;;;5095885;28;19944;-80
2023/05/21 05:09:56;;;;;;;;;;;18.40;59.10;;;;;;5095073;28;19943;-80
2023/05/21 05:12:22;;;;;;;;;;;18.40;59.10;;;;;;5078779;28;20006;-79
2023/05/21 05:14:48;;;;;;;;;;;18.40;59.10;;;;;;5077829;28;19908;-79
2023/05/21 05:17:13;;;;;;;;;;;18.40;59.00;;;;;;5078645;28;19908;-80
2023/05/21 05:19:39;;;;;;;;;;;18.40;59.00;;;;;;5112075;28;20277;-79
2023/05/21 05:22:04;;;;;;;;;;;18.40;59.00;;;;;;5076110;28;20133;-80
2023/05/21 05:24:30;;;;;;;;;;;18.40;59.00;;;;;;5094557;28;19918;-79
2023/05/21 05:26:55;;;;;;;;;;;18.40;59.00;;;;;;5077452;28;19909;-79
2023/05/21 05:29:21;;;;;;;;;;;18.40;58.90;;;;;;5110649;28;20282;-80
2023/05/21 05:31:46;;;;;;;;;;;18.40;58.90;;;;;;5095352;28;19935;-80
2023/05/21 05:34:12;;;;;;;;;;;18.40;58.90;;;;;;5095361;28;20013;-80
2023/05/21 05:36:37;;;;;;;;;;;18.40;58.90;;;;;;5078728;28;19920;-80
2023/05/21 05:39:03;;;;;;;;;;;18.50;58.90;;;;;;5112001;28;20251;-79
2023/05/21 05:41:28;;;;;;;;;;;18.50;58.90;;;;;;5094712;28;19961;-79
2023/05/21 05:43:54;;;;;;;;;;;18.50;58.80;;;;;;5076168;28;19912;-79
2023/05/21 05:46:27;;;;;;;;;;;18.50;58.80;;;;;;5075500;28;19916;-79
2023/05/21 05:48:53;;;;;;;;;;;18.50;58.80;;;;;;5093185;28;20027;-80
2023/05/21 05:51:18;;;;;;;;;;;18.50;59.10;;;;;;5093862;28;20348;-80
2023/05/21 05:53:44;;;;;;;;;;;18.50;58.70;;;;;;5079837;28;20208;-80
2023/05/21 05:56:10;;;;;;;;;;;18.50;58.60;;;;;;5079851;28;19908;-79
2023/05/21 05:58:35;;;;;;;;;;;18.50;59.00;;;;;;5098929;28;20270;-80
2023/05/21 06:01:02;;;;;;;;;;;18.60;58.60;;;;;;5114853;28;19908;-80
2023/05/21 06:03:28;;;;;;;;;;;18.60;58.60;;;;;;5082420;28;19908;-80
2023/05/21 06:05:54;;;;;;;;;;;18.60;58.60;;;;;;5099629;28;20089;-80
2023/05/21 06:08:19;;;;;;;;;;;18.60;58.50;;;;;;5081465;28;19982;-80
2023/05/21 06:10:44;;;;;;;;;;;18.60;58.50;;;;;;5081545;28;19915;-80
2023/05/21 06:13:10;;;;;;;;;;;18.70;58.50;;;;;;5115000;28;19908;-80
2023/05/21 06:15:36;;;;;;;;;;;18.70;58.50;;;;;;5081924;28;19908;-80
2023/05/21 06:18:13;;;;;;;;;;;18.70;58.40;;;;;;5099522;28;19919;-79
2023/05/21 06:20:38;;;;;;;;;;;18.70;58.40;;;;;;5098309;28;19935;-79
2023/05/21 06:23:06;;;;;;;;;;;18.70;58.40;;;;;;5081168;28;19908;-80
2023/05/21 06:25:31;;;;;;;;;;;18.70;58.40;;;;;;5080868;28;19920;-80
2023/05/21 06:27:57;;;;;;;;;;;18.80;58.40;;;;;;5080309;28;19916;-80
2023/05/21 06:30:22;;;;;;;;;;;18.80;58.40;;;;;;5097400;28;19968;-80
2023/05/21 06:32:48;;;;;;;;;;;18.80;58.50;;;;;;5079603;28;19908;-79
2023/05/21 06:35:13;;;;;;;;;;;18.80;58.40;;;;;;5079450;28;19908;-80
2023/05/21 06:37:47;;;;;;;;;;;18.90;58.50;;;;;;5080248;28;20262;-80
2023/05/21 06:40:19;;;;;;;;;;;18.90;58.40;;;;;;5097481;28;19947;-80
2023/05/21 06:42:45;;;;;;;;;;;19.00;58.40;;;;;;5079240;28;19915;-80
2023/05/21 06:45:11;;;;;;;;;;;19.00;58.40;;;;;;5077879;28;19932;-80
2023/05/21 06:47:36;;;;;;;;;;;19.00;58.40;;;;;;5077877;28;19908;-80
2023/05/21 06:50:02;;;;;;;;;;;19.10;58.40;;;;;;5097356;28;19908;-80
2023/05/21 06:52:27;;;;;;;;;;;19.10;58.40;;;;;;5079697;28;19912;-80
2023/05/21 06:55:05;;;;;;;;;;;19.20;58.30;;;;;;5113985;28;20277;-80
2023/05/21 06:57:31;;;;;;;;;;;19.20;58.30;;;;;;5079755;28;19916;-80
2023/05/21 06:59:56;;;;;;;;;;;19.20;58.40;;;;;;5078705;28;19973;-79
2023/05/21 07:02:22;;;;;;;;;;;19.30;58.30;;;;;;5079651;28;20265;-80
2023/05/21 07:04:48;;;;;;;;;;;19.40;58.10;;;;;;5077180;28;19916;-79
2023/05/21 07:07:13;;;;;;;;;;;19.50;58.00;;;;;;5095773;28;20325;-79
2023/05/21 07:09:39;;;;;;;;;;;19.60;57.60;;;;;;5078179;28;19919;-80
2023/05/21 07:12:06;;;;;;;;;;;19.70;57.60;;;;;;5077895;28;20185;-80
2023/05/21 07:14:31;;;;;;;;;;;19.70;57.60;;;;;;5079065;28;20243;-80
2023/05/21 07:16:57;;;;;;;;;;;19.70;57.40;;;;;;5097907;28;20320;-80
2023/05/21 07:19:22;;;;;;;;;;;19.80;57.30;;;;;;5077202;28;19912;-79
2023/05/21 07:21:48;;;;;;;;;;;19.80;57.40;;;;;;5078445;28;19908;-80
2023/05/21 07:24:14;;;;;;;;;;;19.90;57.20;;;;;;5079241;28;19985;-80
2023/05/21 07:26:40;;;;;;;;;;;20.00;57.10;;;;;;5096110;28;19908;-79
2023/05/21 07:29:10;;;;;;;;;;;20.20;57.20;;;;;;5078214;28;19976;-80
2023/05/21 07:31:36;;;;;;;;;;;20.20;57.10;;;;;;5093051;28;20296;-80
2023/05/21 07:34:02;;;;;;;;;;;20.20;57.10;;;;;;5077046;28;19913;-79
2023/05/21 07:36:28;;;;;;;;;;;20.30;56.70;;;;;;5094494;28;20014;-80
2023/05/21 07:38:54;;;;;;;;;;;20.30;57.10;;;;;;5075401;28;19959;-80
2023/05/21 07:41:20;;;;;;;;;;;20.30;56.80;;;;;;5094846;28;20310;-79
2023/05/21 07:43:46;;;;;;;;;;;20.40;56.50;;;;;;5078115;28;19938;-79
2023/05/21 07:46:11;;;;;;;;;;;20.50;56.80;;;;;;5099999;28;20050;-80
2023/05/21 07:48:52;;;;;;;;;;;20.60;56.90;;;;;;5097499;28;19912;-79
2023/05/21 07:51:18;;;;;;;;;;;20.80;56.80;;;;;;5076749;28;19920;-79
2023/05/21 07:53:43;;;;;;;;;;;21.00;56.40;;;;;;5077879;28;19969;-80
2023/05/21 07:56:09;;;;;;;;;;;21.10;56.50;;;;;;5076460;28;20106;-79
2023/05/21 07:58:44;;;;;;;;;;;21.20;56.40;;;;;;5093851;28;19938;-80
2023/05/21 08:01:12;;;;;;;;;;;21.20;56.30;;;;;;5075855;28;19908;-80
2023/05/21 08:03:38;;;;;;;;;;;21.20;56.10;;;;;;5075712;28;19951;-79
2023/05/21 08:06:03;;;;;;;;;;;21.20;56.20;;;;;;5074579;28;19935;-79
2023/05/21 08:08:31;;;;;;;;;;;21.20;56.10;;;;;;5076463;28;20143;-80
2023/05/21 08:10:57;;;;;;;;;;;21.30;56.30;;;;;;5076763;28;19909;-80
2023/05/21 08:13:28;;;;;;;;;;;21.30;56.30;;;;;;5075975;28;19938;-80
2023/05/21 08:15:53;;;;;;;;;;;21.40;56.20;;;;;;5075512;28;19939;-79
2023/05/21 08:18:19;;;;;;;;;;;21.60;55.90;;;;;;5077645;28;19916;-79
2023/05/21 08:20:44;;;;;;;;;;;21.70;55.70;;;;;;5074773;28;19943;-80
2023/05/21 08:23:10;;;;;;;;;;;21.90;55.60;;;;;;5091009;28;19916;-79
2023/05/21 08:25:35;;;;;;;;;;;22.20;55.00;;;;;;5109252;28;20015;-80
2023/05/21 08:28:04;;;;;;;;;;;22.70;54.50;;;;;;5076709;28;19912;-80
2023/05/21 08:30:31;;;;;;;;;;;22.90;54.30;;;;;;5078916;28;19915;-79
2023/05/21 08:32:57;;;;;;;;;;;23.00;53.60;;;;;;5077613;28;20000;-80
2023/05/21 08:35:23;;;;;;;;;;;22.80;53.70;;;;;;5076876;28;20159;-80
2023/05/21 08:37:49;;;;;;;;;;;22.80;54.10;;;;;;5096292;28;19976;-80
2023/05/21 08:40:14;;;;;;;;;;;22.80;54.20;;;;;;5080023;28;19908;-79
2023/05/21 08:42:48;;;;;;;;;;;22.90;54.40;;;;;;5076514;28;19908;-80
2023/05/21 08:45:14;;;;;;;;;;;22.90;54.20;;;;;;5077287;28;19915;-79
2023/05/21 08:47:43;;;;;;;;;;;22.90;54.20;;;;;;5093547;28;19908;-80
2023/05/21 08:50:10;;;;;;;;;;;22.80;54.70;;;;;;5093853;28;19997;-80
2023/05/21 08:52:36;;;;;;;;;;;22.80;54.80;;;;;;5076257;28;20003;-80
2023/05/21 08:55:05;;;;;;;;;;;22.70;54.90;;;;;;5093722;28;20318;-80
2023/05/21 08:57:46;;;;;;;;;;;22.70;55.10;;;;;;5094023;28;19908;-80
2023/05/21 09:00:16;;;;;;;;;;;22.60;55.00;;;;;;5075513;28;20125;-80
2023/05/21 09:02:43;;;;;;;;;;;22.70;55.00;;;;;;5094311;28;19919;-80
2023/05/21 09:05:09;;;;;;;;;;;22.90;54.90;;;;;;5076687;28;19912;-80
2023/05/21 09:07:41;;;;;;;;;;;23.10;54.60;;;;;;5093147;28;19919;-80
2023/05/21 09:10:17;;;;;;;;;;;23.50;54.30;;;;;;5092087;28;19938;-80
2023/05/21 09:12:43;;;;;;;;;;;24.00;53.70;;;;;;5093159;28;19999;-80
2023/05/21 09:15:09;;;;;;;;;;;24.60;52.90;;;;;;5106680;28;20108;-80
2023/05/21 09:17:34;;;;;;;;;;;24.90;52.30;;;;;;5074081;28;19908;-80
2023/05/21 09:20:26;;;;;;;;;;;25.20;52.00;;;;;;5075043;28;19942;-80
2023/05/21 09:22:52;;;;;;;;;;;25.30;51.80;;;;;;5072634;28;20189;-80
2023/05/21 09:25:28;;;;;;;;;;;25.40;51.70;;;;;;5075786;28;20186;-80
2023/05/21 09:27:57;;;;;;;;;;;25.20;51.60;;;;;;5111631;28;19943;-80
2023/05/21 09:30:23;;;;;;;;;;;25.00;51.70;;;;;;5079405;28;20008;-80
2023/05/21 09:32:58;;;;;;;;;;;24.90;51.90;;;;;;5078990;28;19970;-79
2023/05/21 09:35:24;;;;;;;;;;;24.70;52.10;;;;;;5078959;28;20190;-80
2023/05/21 09:37:51;;;;;;;;;;;24.40;52.30;;;;;;5094781;28;20259;-80
2023/05/21 09:40:17;;;;;;;;;;;24.20;52.70;;;;;;5077965;28;19931;-80
2023/05/21 09:42:46;;;;;;;;;;;24.00;53.00;;;;;;5095877;28;19909;-80
2023/05/21 09:45:17;;;;;;;;;;;23.80;53.30;;;;;;5094984;28;19916;-80
2023/05/21 09:47:43;;;;;;;;;;;23.60;53.70;;;;;;5079182;28;19908;-80
2023/05/21 09:50:11;;;;;;;;;;;23.50;54.00;;;;;;5097853;28;19958;-80
2023/05/21 09:52:37;;;;;;;;;;;23.50;54.00;;;;;;5078211;28;19968;-80
2023/05/21 09:55:13;;;;;;;;;;;23.40;54.30;;;;;;5078753;28;20230;-80
2023/05/21 09:57:48;;;;;;;;;;;23.30;54.50;;;;;;5077683;28;19922;-80
2023/05/21 10:00:30;;;;;;;;;;;23.30;54.60;;;;;;5078147;28;20273;-80
2023/05/21 10:02:59;;;;;;;;;;;23.30;54.70;;;;;;5075838;28;19939;-80
2023/05/21 10:05:26;;;;;;;;;;;23.20;54.90;;;;;;5079067;28;19985;-80
2023/05/21 10:07:53;;;;;;;;;;;23.10;55.10;;;;;;5077052;28;19909;-80
2023/05/21 10:10:26;;;;;;;;;;;23.00;55.60;;;;;;5095645;28;19915;-80
2023/05/21 10:12:59;;;;;;;;;;;23.00;55.70;;;;;;5078674;28;19994;-80
2023/05/21 10:15:26;;;;;;;;;;;23.00;55.70;;;;;;5077405;28;20010;-80
2023/05/21 10:17:54;;;;;;;;;;;22.90;55.50;;;;;;5076927;28;19916;-80
2023/05/21 10:20:23;;;;;;;;;;;22.80;55.70;;;;;;5077829;28;20098;-80
2023/05/21 10:22:49;;;;;;;;;;;22.90;56.20;;;;;;5078734;28;19908;-80
2023/05/21 10:25:15;;;;;;;;;;;22.80;56.40;;;;;;5078922;28;19919;-79
2023/05/21 10:27:40;;;;;;;;;;;22.80;56.40;;;;;;5097068;28;20006;-80
2023/05/21 10:30:08;;;;;;;;;;;22.80;56.40;;;;;;5078409;28;19908;-80
2023/05/21 10:32:34;;;;;;;;;;;22.80;56.80;;;;;;5076244;28;20189;-80
2023/05/21 10:35:01;;;;;;;;;;;22.80;56.90;;;;;;5076003;28;19915;-80
2023/05/21 10:37:28;;;;;;;;;;;22.80;56.90;;;;;;5077286;28;19912;-80
2023/05/21 10:39:54;;;;;;;;;;;22.80;56.90;;;;;;5075157;28;19916;-80
2023/05/21 10:42:29;;;;;;;;;;;22.80;57.00;;;;;;5076433;28;19999;-80
2023/05/21 10:45:10;;;;;;;;;;;22.80;57.10;;;;;;5075095;28;20205;-80
2023/05/21 10:47:57;;;;;;;;;;;22.80;57.20;;;;;;5076151;28;20290;-81
2023/05/21 10:50:38;;;;;;;;;;;22.80;57.10;;;;;;5076394;28;19962;-80
2023/05/21 10:53:23;;;;;;;;;;;22.90;57.80;;;;;;5076081;28;19908;-80
2023/05/21 10:55:55;;;;;;;;;;;22.80;57.40;;;;;;5092031;28;19966;-80
2023/05/21 10:58:27;;;;;;;;;;;22.80;57.60;;;;;;5082883;28;19935;-80
2023/05/21 11:00:54;;;;;;;;;;;22.90;57.40;;;;;;5075406;28;19976;-79
2023/05/21 11:03:28;;;;;;;;;;;22.90;57.60;;;;;;5073806;28;19908;-80
2023/05/21 11:06:01;;;;;;;;;;;23.00;57.80;;;;;;5092476;28;20066;-80
2023/05/21 11:08:30;;;;;;;;;;;23.00;57.70;;;;;;5092128;28;19916;-80
2023/05/21 11:11:04;;;;;;;;;;;23.00;57.60;;;;;;5075670;28;19913;-80
2023/05/21 11:13:54;;;;;;;;;;;23.10;57.70;;;;;;5076319;28;19919;-81
2023/05/21 11:16:22;;;;;;;;;;;23.10;57.90;;;;;;5091537;28;19908;-80
2023/05/21 11:18:47;;;;;;;;;;;23.20;57.70;;;;;;5075671;28;19919;-80
2023/05/21 11:21:14;;;;;;;;;;;23.20;57.90;;;;;;5074539;28;20229;-80
2023/05/21 11:23:52;;;;;;;;;;;23.30;57.80;;;;;;5074352;28;19915;-80
2023/05/21 11:26:18;;;;;;;;;;;23.30;57.90;;;;;;5073948;28;19969;-80
2023/05/21 11:28:44;;;;;;;;;;;23.40;57.90;;;;;;5073416;28;19976;-80
2023/05/21 11:31:25;;;;;;;;;;;23.40;58.10;;;;;;5107294;28;20182;-80
2023/05/21 11:34:10;;;;;;;;;;;23.40;58.20;;;;;;5071931;28;19962;-80
2023/05/21 11:37:01;;;;;;;;;;;23.40;58.00;;;;;;5089622;28;19908;-80
2023/05/21 11:39:27;;;;;;;;;;;23.40;58.10;;;;;;5073610;28;19994;-79
2023/05/21 11:41:53;;;;;;;;;;;23.40;58.20;;;;;;5074947;28;20000;-80
2023/05/21 11:44:37;;;;;;;;;;;23.40;58.30;;;;;;5073699;28;19912;-80
2023/05/21 11:47:03;;;;;;;;;;;23.40;58.50;;;;;;5090960;28;19914;-81
2023/05/21 11:49:30;;;;;;;;;;;23.40;58.40;;;;;;5072966;28;19916;-80
2023/05/21 11:51:55;;;;;;;;;;;23.40;58.30;;;;;;5073254;28;19923;-80
2023/05/21 11:54:22;;;;;;;;;;;23.40;58.70;;;;;;5106052;28;19908;-80
2023/05/21 11:56:48;;;;;;;;;;;23.40;58.70;;;;;;5092827;28;19909;-80
2023/05/21 11:59:17;;;;;;;;;;;23.40;58.80;;;;;;5073732;28;20050;-79
2023/05/21 12:01:43;;;;;;;;;;;23.40;58.60;;;;;;5108647;28;20076;-80
2023/05/21 12:04:10;;;;;;;;;;;23.40;58.80;;;;;;5073347;28;19916;-80
2023/05/21 12:06:36;;;;;;;;;;;23.50;58.90;;;;;;5077003;28;19934;-80
2023/05/21 12:09:03;;;;;;;;;;;23.50;58.80;;;;;;5094638;28;19912;-79
2023/05/21 12:11:29;;;;;;;;;;;23.50;58.80;;;;;;5075664;28;20118;-80
2023/05/21 12:13:55;;;;;;;;;;;23.50;58.90;;;;;;5073009;28;19908;-80
2023/05/21 12:16:21;;;;;;;;;;;23.60;58.80;;;;;;5071883;28;20165;-80
2023/05/21 12:18:47;;;;;;;;;;;23.60;59.00;;;;;;5072568;28;19934;-80
2023/05/21 12:21:13;;;;;;;;;;;23.60;58.80;;;;;;5072176;28;20269;-80
2023/05/21 12:23:40;;;;;;;;;;;23.60;58.90;;;;;;5073154;28;19957;-80
2023/05/21 12:26:05;;;;;;;;;;;23.60;59.10;;;;;;5071181;28;19958;-80
2023/05/21 12:28:31;;;;;;;;;;;23.60;59.10;;;;;;5070416;28;19951;-80
2023/05/21 12:30:57;;;;;;;;;;;23.60;59.20;;;;;;5070604;28;20027;-80
2023/05/21 12:33:24;;;;;;;;;;;23.60;59.00;;;;;;5071956;28;19915;-80
2023/05/21 12:35:54;;;;;;;;;;;23.70;59.30;;;;;;5073063;28;19908;-80
2023/05/21 12:38:20;;;;;;;;;;;23.60;59.40;;;;;;5102489;28;19920;-80
2023/05/21 12:40:45;;;;;;;;;;;23.70;59.30;;;;;;5086083;28;19918;-81
2023/05/21 12:43:11;;;;;;;;;;;23.70;59.30;;;;;;5070570;28;19908;-81
2023/05/21 12:45:38;;;;;;;;;;;23.70;59.50;;;;;;5103262;28;19978;-82
2023/05/21 12:48:03;;;;;;;;;;;23.70;59.40;;;;;;5070690;28;19912;-81
2023/05/21 12:50:29;;;;;;;;;;;23.70;59.40;;;;;;5065817;28;19923;-81
2023/05/21 12:52:56;;;;;;;;;;;23.80;59.80;;;;;;5067774;28;19919;-81
2023/05/21 12:55:24;;;;;;;;;;;23.80;59.70;;;;;;5086497;28;19912;-81
2023/05/21 12:57:50;;;;;;;;;;;23.80;59.90;;;;;;5085629;28;20190;-81
2023/05/21 13:00:21;;;;;;;;;;;23.80;59.90;;;;;;5099607;28;20237;-81
2023/05/21 13:02:50;;;;;;;;;;;23.70;60.00;;;;;;5067432;28;19961;-81
2023/05/21 13:05:17;;;;;;;;;;;23.80;60.30;;;;;;5069142;28;19912;-81
2023/05/21 13:07:45;;;;;;;;;;;23.70;60.10;;;;;;5068907;28;19968;-81
2023/05/21 13:10:11;;;;;;;;;;;23.80;60.40;;;;;;5070886;28;19981;-81
2023/05/21 13:12:37;;;;;;;;;;;23.70;60.50;;;;;;5070065;28;19968;-81
2023/05/21 13:15:03;;;;;;;;;;;23.70;60.60;;;;;;5084748;28;20048;-80
2023/05/21 13:17:29;;;;;;;;;;;23.80;60.90;;;;;;5067601;28;20062;-81
2023/05/21 13:20:17;;;;;;;;;;;23.70;61.00;;;;;;5067342;28;20026;-81
2023/05/21 13:22:46;;;;;;;;;;;23.70;61.20;;;;;;5066272;28;19935;-80
2023/05/21 13:25:17;;;;;;;;;;;23.80;61.40;;;;;;5085196;28;20193;-81
2023/05/21 13:27:43;;;;;;;;;;;23.80;61.50;;;;;;5084920;28;20139;-81
2023/05/21 13:30:10;;;;;;;;;;;23.80;61.60;;;;;;5086386;28;19908;-81
2023/05/21 13:32:35;;;;;;;;;;;23.80;61.30;;;;;;5070409;28;19919;-81
2023/05/21 13:35:01;;;;;;;;;;;23.80;61.50;;;;;;5086824;28;19908;-80
2023/05/21 13:37:27;;;;;;;;;;;23.80;61.70;;;;;;5085943;28;19948;-81
2023/05/21 13:39:52;;;;;;;;;;;23.80;62.10;;;;;;5103076;28;19909;-81
2023/05/21 13:42:18;;;;;;;;;;;23.80;62.30;;;;;;5086926;28;19909;-81
2023/05/21 13:44:45;;;;;;;;;;;23.80;62.10;;;;;;5087653;28;19908;-81
2023/05/21 13:47:10;;;;;;;;;;;23.80;61.90;;;;;;5088001;28;19908;-81
2023/05/21 13:49:36;;;;;;;;;;;23.80;62.00;;;;;;5066996;28;19973;-81
2023/05/21 13:52:02;;;;;;;;;;;23.80;62.00;;;;;;5067201;28;20284;-81
2023/05/21 13:54:28;;;;;;;;;;;23.80;62.30;;;;;;5094397;28;19916;-81
2023/05/21 13:56:53;;;;;;;;;;;23.80;62.50;;;;;;5066964;28;19919;-81
2023/05/21 13:59:19;;;;;;;;;;;23.90;62.70;;;;;;5067914;28;20171;-80
2023/05/21 14:01:44;;;;;;;;;;;23.80;62.60;;;;;;5087488;28;19908;-81
2023/05/21 14:04:10;;;;;;;;;;;23.80;63.10;;;;;;5068310;28;20144;-81
2023/05/21 14:06:36;;;;;;;;;;;23.90;62.80;;;;;;5068030;28;20035;-81
2023/05/21 14:09:02;;;;;;;;;;;23.90;63.20;;;;;;5066229;28;19912;-81
2023/05/21 14:11:30;;;;;;;;;;;23.90;63.80;;;;;;5065890;28;20036;-80
2023/05/21 14:13:55;;;;;;;;;;;23.90;63.40;;;;;;5085153;28;19908;-80
2023/05/21 14:16:23;;;;;;;;;;;23.90;64.00;;;;;;5069146;28;19939;-80
2023/05/21 14:18:49;;;;;;;;;;;24.00;63.90;;;;;;5072303;28;19943;-81